Предлагаем Вашему вниманию английскую версию страницы: AUTOTAF.ME 13457 - aviation weather forecast Tivat

AUTOTAF 13457 - авиапрогноз Tivat

Сегодня рассвет 04:43 UTC, восход солнца 05:12 UTC,
местный полдень 10:29 UTC, заход солнца 15:45 UTC,
наступление темноты 16:14 UTC.

Краткий прогноз 13457 на 9 часов

AUTOTAF.ME 13457 260800Z 2609/2618 VRB02MPS 9999 BKN011      
  BECMG 2616/2618 09003MPS

Детальный прогноз 13457 на 24 часа

AUTOTAF.ME 13457 260800Z 2609/2709 VRB02MPS 9999 BKN011 TX15/2612Z TN13/2618Z    
  BECMG 2616/2618 09003MPS  
  BECMG 2619/2621 SCT026  
  BECMG 2622/2700 SCT018   
  FM270600 07003MPS 9999 BKN010 
  FM270900 VRB02MPS 9999 BKN010

Подробный табличный прогноз

Время (UTC) miniAUTOTAF на 3 ч WX FZLVL
M AGL
ICE TURB Т
(°С)
Тd
(°С)
f(%) QNH
(гПа)
WIND/T
06 VRB02MPS 9999 -RA OVC011 -RA 3300 13 10 83 1016 ...
09 VRB02MPS 9999 BKN011 3600 14 11 85 1015 ...
12 16003MPS 9999 BKN011 3600 15 12 84 1014 ...
15 14003MPS 9999 BKN011 3600 14 12 86 1013 ...
18 09003MPS 9999 BKN011 3600 13 11 86 1014 ...
21 07003MPS 9999 SCT026 3600 13 10 81 1014 ...
27.10.2020
00 07003MPS 9999 SCT018 3300 13 9 80 1014 ...
03 07004MPS 9999 BKN018 3300 13 9 81 1014 ...
06 07003MPS 9999 BKN010 3300 13 10 82 1014 ...
09 VRB02MPS 9999 BKN010 3300 15 12 78 1013 ...
12 15003MPS 9999 BKN010 3300 15 12 81 1012 ...
15 13003MPS 9999 BKN010 3000 15 12 83 1012 ...
18 06003MPS 9999 VCSH BKN010CB VCSH 3000 13 11 83 1013 ...
21 05003MPS 9999 OVC300 3000 14 9 76 1013 ...
28.10.2020
00 03003MPS 9999 BKN300 3000 13 8 72 1014 ...
03 VRB02MPS 9999 SCT280 3000 13 8 69 1013 ...


Широта 42.4°, долгота 18.7°, высота 5 м абс.
Средняя высота рельефа местности 461 м абс.
Прогнозы обновляются четыре раза в сутки: в 02, 08, 14, 20 ч всемирного времени.


Выбрать прогноз по другой модели Tivat
Онлайн-сводка гроз по Tivat (для РФ и ближнего зарубежья)
Карта фактических гроз в окрестностях Tivat
Динамические прогностические карты (ventusky.com)
Прогностическая карта высоты нижней границы облаков по Tivat (windy.com)
Выбрать другой город

Прогноз предназначен для личного научно-познавательного использования частными лицами
и не предназначен для принятия важных решений и выполнения реальных полётов воздушных судов

При копировании или ином использовании любых материалов данного сайта ссылка на © meteocenter.asia обязательна.

1.13/1.6